Redford, Texas
Current Conditions -  °F | °C
As of 11:35 AM on Wednesday 26 Nov 2014 (Local Time) from KPRS Reporting Station
Clear Clear  
Wind Chill: 57°   Ceiling: Unl
Heat Index: 57°   Visibility: 10mi
Dew Point: 14°   Wind: 6mph
Humidity: 19%   Direction: 210°SSW
Pressure: 30.36"   Gusts: NA
Location:  29.45°N, 104.19°W
Report Text: KPRS 261735Z AUTO 21005KT 10SM CLR 14/M10 A3036 RMK AO2 T01381100
Loading
Personal Weather Stations






























Interactive Weather Map New forecast layout! Learn more

10-Day Weather Forecast

Advertisements
Track Severe Weather on mobile